Have a Safe July 4th! 

Flight Track Log - Related Links

Times and Time Zones

All times are in EDT time to prevent confusion due to time zone crossing. See the AAL963 flight status page for this flight to view local times or setup timezone preferences in your user account.

Time Position Orientation Groundspeed Altitude Reporting Facility
EDT Latitude Longitude Course Direction KTS MPH feet Rate Location/Type
Sat 09:14:51 PM 32.8680 -97.0510 181° South 192 221 1,700  Level FlightAware ADS-B
Sat 09:15:11 PM 32.8490 -97.0520 183° South 202 232 2,200 955 Climbing FlightAware ADS-B
Sat 09:15:35 PM 32.8250 -97.0520 180° South 230 265 2,400 1,071 Climbing FlightAware ADS-B
Sat 09:16:07 PM 32.7880 -97.0520 180° South 257 296 3,200 1,607 Climbing FlightAware ADS-B
Sat 09:16:31 PM 32.7590 -97.0530 182° South 269 310 3,900 1,909 Climbing FlightAware ADS-B
Sat 09:16:51 PM 32.7330 -97.0530 180° South 273 314 4,600 2,250 Climbing FlightAware ADS-B
Sat 09:17:03 PM 32.7180 -97.0530 180° South 276 318 5,100 2,333 Climbing FlightAware ADS-B
Sat 09:17:27 PM 32.6870 -97.0530 180° South 281 323 6,000 2,118 Climbing FlightAware ADS-B
Sat 09:17:37 PM 32.6730 -97.0540 183° South 283 326 6,300 2,250 Climbing FlightAware ADS-B
Sat 09:17:59 PM 32.6440 -97.0550 182° South 288 331 7,200 2,192 Climbing FlightAware ADS-B
Sat 09:18:29 PM 32.6050 -97.0510 175° South 290 334 8,200 2,211 Climbing FlightAware ADS-B
Sat 09:18:37 PM 32.5950 -97.0470 161° South 289 333 8,600 2,571 Climbing FlightAware ADS-B
Sat 09:18:57 PM 32.5730 -97.0310 148° Southeast 285 328 9,400 2,143 Climbing FlightAware ADS-B
Sat 09:19:33 PM 32.5330 -96.9990 146° Southeast 294 338 10,600 1,833 Climbing FlightAware ADS-B
Sat 09:20:09 PM 32.4890 -96.9670 148° Southeast 318 366 11,600 1,545 Climbing FlightAware ADS-B
Sat 09:20:39 PM 32.4490 -96.9390 149° Southeast 342 394 12,300 1,676 Climbing FlightAware ADS-B
Sat 09:21:17 PM 32.3930 -96.9060 154° Southeast 363 418 13,500 2,000 Climbing FlightAware ADS-B
Sat 09:21:51 PM 32.3380 -96.8820 160° South 375 432 14,700 1,833 Climbing FlightAware ADS-B
Sat 09:22:29 PM 32.2760 -96.8550 160° South 391 450 15,700 1,371 Climbing FlightAware ADS-B
Sat 09:23:01 PM 32.2190 -96.8300 160° South 415 478 16,300 1,500 Climbing FlightAware ADS-B
Sat 09:23:37 PM 32.1550 -96.8010 159° South 422 486 17,400 1,875 Climbing FlightAware ADS-B
Sat 09:24:05 PM 32.1000 -96.7778 160° South 428 493 18,300 1,862 Climbing FlightAware ADS-B
Sat 09:24:35 PM 32.0433 -96.7537 160° South 436 502 19,200 1,770 Climbing FlightAware ADS-B
Sat 09:25:06 PM 31.9839 -96.7285 160° South 443 510 20,100 1,645 Climbing FlightAware ADS-B
Sat 09:25:37 PM 31.9243 -96.7030 160° South 449 517 20,900 1,672 Climbing FlightAware ADS-B
Sat 09:26:07 PM 31.8651 -96.6778 160° South 454 522 21,800 1,800 Climbing FlightAware ADS-B
Sat 09:26:37 PM 31.8046 -96.6521 160° South 457 526 22,700 1,900 Climbing FlightAware ADS-B
Sat 09:27:07 PM 31.7441 -96.6263 160° South 460 529 23,700 1,645 Climbing FlightAware ADS-B
Sat 09:27:39 PM 31.6800 -96.5990 160° South 467 537 24,400 1,419 Climbing FlightAware ADS-B
Sat 09:28:40 PM 31.5547 -96.5460 160° South 475 547 25,900 1,438 Climbing FlightAware ADS-B
Sat 09:29:15 PM 31.4828 -96.5156 160° South 480 552 26,700 1,385 Climbing FlightAware ADS-B
Sat 09:29:45 PM 31.4179 -96.4881 160° South 486 559 27,400 1,403 Climbing FlightAware ADS-B
Sat 09:31:19 PM 31.2177 -96.4037 160° South 496 571 29,600 1,376 Climbing FlightAware ADS-B
Sat 09:31:34 PM 31.1873 -96.3859 153° Southeast 494 568 29,900 1,579 Climbing FlightAware ADS-B
Sat 09:32:35 PM 31.0954 -96.2696 126° Southeast 483 556 31,600 1,516 Climbing FlightAware ADS-B
Sat 09:33:05 PM 31.0561 -96.2054 126° Southeast 484 557 32,200 824 Climbing FlightAware ADS-B
Sat 09:34:17 PM 30.9533 -96.0579 133° Southeast 494 568 33,000 471 Climbing FlightAware ADS-B
Sat 09:34:47 PM 30.9050 -96.0009 135° Southeast 494 568 33,000  Level FlightAware ADS-B
Sat 09:35:48 PM 30.8060 -95.8873 136° Southeast 496 571 33,000  Level FlightAware ADS-B
Sat 09:36:18 PM 30.7566 -95.8308 135° Southeast 497 572 33,000  Level FlightAware ADS-B
Sat 09:36:50 PM 30.7036 -95.7705 136° Southeast 498 573 33,000  Level FlightAware ADS-B
Sat 09:37:21 PM 30.6534 -95.7134 136° Southeast 498 573 33,000  Level FlightAware ADS-B
Sat 09:38:24 PM 30.5486 -95.5945 136° Southeast 499 574 33,000  Level FlightAware ADS-B
Sat 09:38:55 PM 30.4988 -95.5381 136° Southeast 499 574 33,000  Level FlightAware ADS-B
Sat 09:39:55 PM 30.3985 -95.4249 136° Southeast 499 574 33,000  Level FlightAware ADS-B
Sat 09:40:26 PM 30.3488 -95.3688 136° Southeast 496 571 33,000  Level FlightAware ADS-B
Sat 09:40:56 PM 30.2985 -95.3123 136° Southeast 497 572 33,000  Level FlightAware ADS-B
Sat 09:41:26 PM 30.2484 -95.2560 136° Southeast 497 572 33,000  Level FlightAware ADS-B
Sat 09:44:29 PM 29.9471 -94.9192 136° Southeast 501 577 33,000  Level FlightAware ADS-B
Sat 09:44:59 PM 29.8969 -94.8634 136° Southeast 501 577 33,000  Level FlightAware ADS-B
Sat 09:45:29 PM 29.8464 -94.8073 136° Southeast 501 577 33,000  Level FlightAware ADS-B
Sat 09:47:30 PM 29.6453 -94.5848 136° Southeast 498 573 33,000  Level FlightAware ADS-B
Sat 09:48:00 PM 29.5947 -94.5291 136° Southeast 499 574 33,000  Level FlightAware ADS-B
Sat 09:48:31 PM 29.5434 -94.4726 136° Southeast 499 574 33,000  Level FlightAware ADS-B
Sat 09:49:01 PM 29.4930 -94.4173 136° Southeast 499 574 33,000  Level FlightAware ADS-B
Sat 09:49:35 PM 29.4375 -94.3564 136° Southeast 499 574 33,000  Level FlightAware ADS-B
Sat 09:50:05 PM 29.3874 -94.3015 136° Southeast 498 573 33,000  Level FlightAware ADS-B
Sat 09:50:35 PM 29.3371 -94.2463 136° Southeast 496 571 33,000  Level FlightAware ADS-B
Sat 09:51:05 PM 29.2871 -94.1915 136° Southeast 497 572 33,000  Level FlightAware ADS-B
Sat 09:51:35 PM 29.2370 -94.1369 136° Southeast 497 572 33,000  Level FlightAware ADS-B
Sat 09:52:06 PM 29.1865 -94.0818 136° Southeast 494 568 33,000  Level FlightAware ADS-B
Sat 09:53:32 PM 29.0511 -93.9294 136° Southeast 493 567 33,000 -41 Level Houston Center
Sat 09:54:33 PM 28.9564 -93.8242 136° Southeast 492 566 32,900  Descending Houston Center
Sat 09:55:33 PM 28.8494 -93.7164 139° Southeast 495 570 33,000 50 Climbing Houston Center
Sat 09:56:34 PM 28.7506 -93.6089 136° Southeast 492 566 33,000  Level Houston Center
Sat 10:02:31 PM 28.0904 -93.0590 136° Southeast 489 563 33,000  Level FlightAware ADS-B
Sat 10:03:13 PM 28.0111 -93.0015 147° Southeast 490 564 33,000  Level FlightAware ADS-B
Sat 10:03:49 PM 27.9414 -92.9508 147° Southeast 490 564 33,000  Level FlightAware ADS-B
Sat 10:04:20 PM 27.8831 -92.9088 148° Southeast 490 564 33,000  Level FlightAware ADS-B
Sat 10:05:41 PM 27.7262 -92.7967 148° Southeast 489 563 33,000  Level FlightAware ADS-B
Sat 10:06:55 PM 27.5841 -92.6977 148° Southeast 488 562 33,000  Level FlightAware ADS-B
Sat 10:07:52 PM 27.4755 -92.6205 148° Southeast 487 560 33,000  Level FlightAware ADS-B
Sat 10:08:41 PM 27.3889 -92.5561 148° Southeast 487 560 33,000 -55 Level Houston Center
Sat 10:09:42 PM 27.2747 -92.4756 148° Southeast 485 558 32,900  Descending Houston Center
Sat 10:10:42 PM 27.1603 -92.3969 149° Southeast 483 556 33,000 50 Climbing Houston Center
Sat 10:11:43 PM 27.0467 -92.3175 148° Southeast 482 555 33,000  Level Houston Center
Sat 10:12:44 PM 26.9328 -92.2353 147° Southeast 484 557 33,000  Level Houston Center
Sat 10:13:44 PM 26.8169 -92.1594 150° Southeast 483 556 33,000 -50 Level Houston Center
Sat 10:14:45 PM 26.6911 -92.0750 149° Southeast 483 556 32,900  Descending Houston Center
Sat 10:16:00 PM 26.5757 -91.9352 133° Southeast  Level FlightAware Approximate
Sat 10:23:00 PM 25.8920 -91.1946 139° Southeast  Level FlightAware Approximate
Sat 10:24:00 PM 25.7897 -91.0950 139° Southeast  Level FlightAware Approximate
Sat 10:25:00 PM 25.6873 -90.9956 139° Southeast  Level FlightAware Approximate
Sat 10:26:00 PM 25.5847 -90.8963 139° Southeast  Level FlightAware Approximate
Sat 10:27:00 PM 25.4822 -90.7971 139° Southeast  Level FlightAware Approximate
Sat 10:28:00 PM 25.3798 -90.6979 139° Southeast  Level FlightAware Approximate
Sat 10:29:00 PM 25.2776 -90.5985 139° Southeast  Level FlightAware Approximate
Sat 10:30:00 PM 25.1753 -90.4993 139° Southeast  Level FlightAware Approximate
Sat 10:31:00 PM 25.0729 -90.4002 139° Southeast  Level FlightAware Approximate
Sat 10:32:00 PM 24.9705 -90.3014 139° Southeast  Level FlightAware Approximate
Sat 10:33:00 PM 24.8680 -90.2026 139° Southeast  Level FlightAware Approximate
Sat 10:34:00 PM 24.7655 -90.1041 139° Southeast  Level FlightAware Approximate
Sat 10:35:00 PM 24.6628 -90.0057 139° Southeast  Level FlightAware Approximate
Sat 10:36:00 PM 24.5602 -89.9075 139° Southeast  Level FlightAware Approximate
Sat 10:37:00 PM 24.4552 -89.8127 146° Southeast  Level FlightAware Approximate
Sat 10:38:00 PM 24.3420 -89.7298 146° Southeast  Level FlightAware Approximate
Sat 10:39:00 PM 24.2287 -89.6470 146° Southeast  Level FlightAware Approximate
Sat 10:39:56 PM 23.8780 -90.2150 146° Southeast 491 565 33,000  Level FlightAware ADS-B
Sat 10:40:00 PM 24.1154 -89.5643 146° Southeast  Level FlightAware Approximate
Sat 10:40:39 PM 23.7970 -90.1770 157° South 491 565 33,000  Level FlightAware ADS-B
Sat 10:41:15 PM 23.7330 -90.1480 157° South 491 565 33,000  Level FlightAware ADS-B
Sat 10:41:51 PM 23.6690 -90.1180 157° South 491 565 33,000  Level FlightAware ADS-B
Sat 10:42:15 PM 23.6260 -90.0980 157° South 491 565 33,000  Level FlightAware ADS-B
Sat 10:42:51 PM 23.5620 -90.0690 157° South 491 565 33,000  Level FlightAware ADS-B
Sat 10:43:27 PM 23.4980 -90.0390 157° South 491 565 33,000  Level FlightAware ADS-B
Sat 10:44:03 PM 23.4340 -90.0090 157° South 491 565 33,000  Level FlightAware ADS-B
Sat 10:44:39 PM 23.3700 -89.9800 157° South 491 565 33,000  Level FlightAware ADS-B
Sat 10:45:15 PM 23.3060 -89.9500 157° South 491 565 33,000  Level FlightAware ADS-B
Sat 10:45:51 PM 23.2420 -89.9210 157° South 491 565 33,000  Level FlightAware ADS-B
Sat 10:46:27 PM 23.1780 -89.8910 157° South 491 565 33,000  Level FlightAware ADS-B
Sat 10:47:03 PM 23.1140 -89.8620 157° South 491 565 33,000  Level FlightAware ADS-B
Sat 10:47:38 PM 23.1390 -89.4020 87° East 498 573 33,000  Level FlightAware ADS-B
Sat 10:48:15 PM 23.0840 -89.3370 133° Southeast 496 571 33,000  Level FlightAware ADS-B
Sat 10:48:50 PM 23.0260 -89.2710 134° Southeast 496 571 33,000  Level FlightAware ADS-B
Sat 10:49:30 PM 22.9650 -89.2000 133° Southeast 497 572 33,000  Level FlightAware ADS-B
Sat 10:50:06 PM 22.9070 -89.1320 133° Southeast 500 575 33,000  Level FlightAware ADS-B
Sat 10:50:38 PM 22.8570 -89.0740 133° Southeast 501 577 33,000  Level FlightAware ADS-B
Sat 10:51:15 PM 22.8050 -89.0140 133° Southeast 503 579 33,000  Level FlightAware ADS-B
Sat 10:51:52 PM 22.7390 -88.9380 133° Southeast 501 577 33,000  Level FlightAware ADS-B
Sat 10:52:26 PM 22.6850 -88.8750 133° Southeast 500 575 33,000  Level FlightAware ADS-B
Sat 10:53:02 PM 22.6310 -88.8130 133° Southeast 495 570 33,000  Level FlightAware ADS-B
Sat 10:53:34 PM 22.5800 -88.7540 133° Southeast 492 566 33,000  Level FlightAware ADS-B
Sat 10:54:10 PM 22.5220 -88.6880 134° Southeast 491 565 33,000  Level FlightAware ADS-B
Sat 10:54:46 PM 22.4660 -88.6230 133° Southeast 493 567 33,000  Level FlightAware ADS-B
Sat 10:55:22 PM 22.4100 -88.5590 133° Southeast 490 564 33,000  Level FlightAware ADS-B
Sat 10:55:54 PM 22.3590 -88.5010 134° Southeast 489 563 33,000  Level FlightAware ADS-B
Sat 10:56:39 PM 22.2950 -88.4390 138° Southeast 488 562 33,000  Level FlightAware ADS-B
Sat 10:57:13 PM 22.2290 -88.3810 141° Southeast 488 562 33,000  Level FlightAware ADS-B
Sat 10:57:46 PM 22.1770 -88.3350 141° Southeast 486 559 33,000  Level FlightAware ADS-B
Sat 10:58:20 PM 22.1160 -88.2800 140° Southeast 485 558 33,000  Level FlightAware ADS-B
Sat 10:58:56 PM 22.0550 -88.2270 141° Southeast 484 557 33,000  Level FlightAware ADS-B
Sat 10:59:40 PM 21.9800 -88.1620 141° Southeast 483 556 33,000  Level FlightAware ADS-B
Sat 11:00:09 PM 21.9290 -88.1170 141° Southeast 484 557 33,000  Level FlightAware ADS-B
Sat 11:00:46 PM 21.8590 -88.0550 141° Southeast 484 557 33,000  Level FlightAware ADS-B
Sat 11:01:23 PM 21.7900 -87.9950 141° Southeast 486 559 33,000  Level FlightAware ADS-B
Sat 11:01:59 PM 21.7370 -87.9480 141° Southeast 486 559 33,000  Level FlightAware ADS-B
Sat 11:02:36 PM 21.6670 -87.8870 141° Southeast 486 559 33,000  Level FlightAware ADS-B
Sat 11:03:06 PM 21.6210 -87.8460 140° Southeast 486 559 33,000  Level FlightAware ADS-B
Sat 11:03:45 PM 21.5410 -87.7760 141° Southeast 488 562 33,000  Level FlightAware ADS-B
Sat 11:04:29 PM 21.4650 -87.7090 141° Southeast 489 563 33,000  Level FlightAware ADS-B
Sat 11:05:01 PM 21.4110 -87.6550 137° Southeast 490 564 33,000  Level FlightAware ADS-B
Sat 11:05:45 PM 21.3410 -87.5810 135° Southeast 492 566 33,000  Level FlightAware ADS-B
Sat 11:06:17 PM 21.2900 -87.5240 134° Southeast 490 564 33,000  Level FlightAware ADS-B
Sat 11:06:53 PM 21.2510 -87.4520 120° Southeast 489 563 33,000  Level FlightAware ADS-B
Sat 11:07:08 PM 21.2420 -87.4140 104° East 491 565 33,000  Level FlightAware ADS-B
Sat 11:07:44 PM 21.2340 -87.3260 96° East 491 565 33,000  Level FlightAware ADS-B
Sat 11:08:16 PM 21.2270 -87.2490 96° East 490 564 33,000  Level FlightAware ADS-B
Sat 11:08:52 PM 21.2200 -87.1620 95° East 489 563 33,000  Level FlightAware ADS-B
Sat 11:09:28 PM 21.2130 -87.0750 95° East 489 563 33,000  Level FlightAware ADS-B
Sat 11:10:05 PM 21.2080 -86.9890 94° East 488 562 33,000  Level FlightAware ADS-B
Sat 11:10:37 PM 21.2020 -86.9120 95° East 487 560 33,000  Level FlightAware ADS-B
Sat 11:11:12 PM 21.1920 -86.8260 97° East 488 562 33,000  Level FlightAware ADS-B
Sat 11:11:48 PM 21.1740 -86.7410 103° East 489 563 33,000  Level FlightAware ADS-B
Sat 11:12:22 PM 21.1530 -86.6620 106° East 490 564 33,000  Level FlightAware ADS-B
Sat 11:12:56 PM 21.1330 -86.5820 105° East 490 564 33,000  Level FlightAware ADS-B
Sat 11:13:32 PM 21.1110 -86.4960 105° East 490 564 33,000  Level FlightAware ADS-B
Sat 11:14:08 PM 21.0890 -86.4130 106° East 493 567 33,000  Level FlightAware ADS-B
Sat 11:14:40 PM 21.0670 -86.3420 108° East 493 567 33,000  Level FlightAware ADS-B
Sat 11:15:25 PM 21.0370 -86.2560 110° East 494 568 33,000  Level FlightAware ADS-B
Sat 11:15:53 PM 21.0030 -86.1900 119° Southeast 497 572 33,000  Level FlightAware ADS-B
Sat 11:16:27 PM 20.9620 -86.1460 135° Southeast 497 572 33,000  Level FlightAware ADS-B
Sat 11:17:24 PM 20.8330 -86.0390 142° Southeast 497 572 33,000  Level FlightAware ADS-B
Sat 11:18:00 PM 20.7680 -85.9840 142° Southeast 498 573 33,000  Level FlightAware ADS-B
Sat 11:18:32 PM 20.7070 -85.9320 141° Southeast 499 574 33,000  Level FlightAware ADS-B
Sat 11:19:16 PM 20.6310 -85.8680 142° Southeast 500 575 33,000  Level FlightAware ADS-B
Sat 11:19:58 PM 20.5610 -85.8080 141° Southeast 500 575 33,000  Level FlightAware ADS-B
Sat 11:20:32 PM 20.4900 -85.7480 142° Southeast 499 574 33,000  Level FlightAware ADS-B
Sat 11:21:06 PM 20.4330 -85.7000 142° Southeast 500 575 33,000  Level FlightAware ADS-B
Sat 11:21:46 PM 20.3710 -85.6470 141° Southeast 500 575 33,000  Level FlightAware ADS-B
Sat 11:22:22 PM 20.3160 -85.6000 141° Southeast 500 575 33,000  Level FlightAware ADS-B
Sat 11:22:58 PM 20.2610 -85.5520 141° Southeast 500 575 33,000 22 Level FlightAware ADS-B
Sat 11:25:00 PM 20.0586 -85.3510 137° Southeast  Level Estimated
Sat 11:26:00 PM 19.9590 -85.2523 137° Southeast  Level Estimated
Sat 11:27:00 PM 19.8593 -85.1538 137° Southeast  Level Estimated
Sat 11:28:00 PM 19.7596 -85.0554 137° Southeast  Level Estimated
Sat 11:29:00 PM 19.6598 -84.9571 137° Southeast  Level Estimated
Sat 11:30:00 PM 19.5600 -84.8589 137° Southeast  Level Estimated
Sat 11:31:00 PM 19.4601 -84.7609 137° Southeast  Level Estimated
Sat 11:32:00 PM 19.3601 -84.6629 137° Southeast  Level Estimated
Sat 11:33:00 PM 19.2602 -84.5651 137° Southeast  Level Estimated
Sat 11:34:00 PM 19.1601 -84.4674 137° Southeast  Level Estimated
Sat 11:35:00 PM 19.0600 -84.3699 137° Southeast  Level Estimated
Sat 11:36:00 PM 18.9599 -84.2724 137° Southeast  Level Estimated
Sat 11:37:00 PM 18.8597 -84.1751 137° Southeast  Level Estimated
Sat 11:38:00 PM 18.7594 -84.0779 137° Southeast  Level Estimated
Sat 11:39:00 PM 18.6591 -83.9808 137° Southeast  Level Estimated
Sat 11:40:00 PM 18.5588 -83.8838 137° Southeast  Level Estimated
Sat 11:41:00 PM 18.4584 -83.7869 138° Southeast  Level Estimated
Sat 11:42:00 PM 18.3579 -83.6901 138° Southeast  Level Estimated
Sat 11:43:00 PM 18.2574 -83.5935 138° Southeast  Level Estimated
Sat 11:44:00 PM 18.1569 -83.4969 138° Southeast  Level Estimated
Sat 11:45:00 PM 18.0563 -83.4005 138° Southeast  Level Estimated
Sat 11:46:00 PM 17.9556 -83.3042 138° Southeast  Level Estimated
Sat 11:47:00 PM 17.8549 -83.2080 138° Southeast  Level Estimated
Sat 11:48:00 PM 17.7542 -83.1119 138° Southeast  Level Estimated
Sat 11:49:00 PM 17.6534 -83.0159 138° Southeast  Level Estimated
Sat 11:50:00 PM 17.5526 -82.9200 138° Southeast  Level Estimated
Sat 11:51:00 PM 17.4517 -82.8242 138° Southeast  Level Estimated
Sat 11:52:00 PM 17.3508 -82.7286 138° Southeast  Level Estimated
Sat 11:53:00 PM 17.2498 -82.6330 138° Southeast  Level Estimated
Sat 11:54:00 PM 17.1488 -82.5376 138° Southeast  Level Estimated
Sat 11:55:00 PM 17.0478 -82.4422 138° Southeast  Level Estimated
Sat 11:56:00 PM 16.9467 -82.3469 138° Southeast  Level Estimated
Sat 11:57:00 PM 16.8455 -82.2518 138° Southeast  Level Estimated
Sat 11:58:00 PM 16.7443 -82.1568 138° Southeast  Level Estimated
Sat 11:59:00 PM 16.6431 -82.0618 138° Southeast  Level Estimated
Sun 12:00:00 AM 16.5418 -81.9669 138° Southeast  Level Estimated
Sun 12:01:00 AM 16.4405 -81.8722 138° Southeast  Level Estimated
Sun 12:02:00 AM 16.3392 -81.7775 138° Southeast  Level Estimated
Sun 12:03:00 AM 16.2378 -81.6830 138° Southeast  Level Estimated
Sun 12:04:00 AM 16.1363 -81.5885 138° Southeast  Level Estimated
Sun 12:05:00 AM 16.0348 -81.4942 138° Southeast  Level Estimated
Sun 12:06:00 AM 15.9333 -81.3999 138° Southeast  Level Estimated
Sun 12:07:00 AM 15.8317 -81.3058 138° Southeast  Level Estimated
Sun 12:08:00 AM 15.7301 -81.2117 138° Southeast  Level Estimated
Sun 12:09:00 AM 15.6285 -81.1177 138° Southeast  Level Estimated
Sun 12:10:00 AM 15.5268 -81.0238 138° Southeast  Level Estimated
Sun 12:11:00 AM 15.4250 -80.9301 138° Southeast  Level Estimated
Sun 12:12:00 AM 15.3233 -80.8363 138° Southeast  Level Estimated
Sun 12:13:00 AM 15.2215 -80.7427 138° Southeast  Level Estimated
Sun 12:14:00 AM 15.1196 -80.6492 138° Southeast  Level Estimated
Sun 12:15:00 AM 15.0212 -80.5590 138° Southeast  Level Estimated
Sun 12:16:00 AM 14.9227 -80.4688 138° Southeast  Level Estimated
Sun 12:17:00 AM 14.8242 -80.3787 139° Southeast  Level Estimated
Sun 12:18:00 AM 14.7257 -80.2887 139° Southeast  Level Estimated
Sun 12:19:00 AM 14.6271 -80.1988 139° Southeast  Level Estimated
Sun 12:20:00 AM 14.5285 -80.1089 139° Southeast  Level Estimated
Sun 12:21:00 AM 14.4299 -80.0191 139° Southeast  Level Estimated
Sun 12:22:00 AM 14.3312 -79.9294 139° Southeast  Level Estimated
Sun 12:23:00 AM 14.2325 -79.8398 139° Southeast  Level Estimated
Sun 12:24:00 AM 14.1338 -79.7503 139° Southeast  Level Estimated
Sun 12:25:00 AM 14.0350 -79.6608 139° Southeast  Level Estimated
Sun 12:26:00 AM 13.9362 -79.5715 139° Southeast  Level Estimated
Sun 12:27:00 AM 13.8374 -79.4822 139° Southeast  Level Estimated
Sun 12:28:00 AM 13.7385 -79.3929 139° Southeast  Level Estimated
Sun 12:29:00 AM 13.6396 -79.3038 139° Southeast  Level Estimated
Sun 12:30:00 AM 13.5407 -79.2147 139° Southeast  Level Estimated
Sun 12:31:00 AM 13.4417 -79.1257 139° Southeast  Level Estimated
Sun 12:32:00 AM 13.3427 -79.0368 139° Southeast  Level Estimated
Sun 12:33:00 AM 13.2437 -78.9479 139° Southeast  Level Estimated
Sun 12:34:00 AM 13.1446 -78.8591 139° Southeast  Level Estimated
Sun 12:35:00 AM 13.0456 -78.7704 139° Southeast  Level Estimated
Sun 12:36:00 AM 12.9464 -78.6818 139° Southeast  Level Estimated
Sun 12:37:00 AM 12.8473 -78.5932 139° Southeast  Level Estimated
Sun 12:38:00 AM 12.7481 -78.5047 139° Southeast  Level Estimated
Sun 12:39:00 AM 12.6489 -78.4163 139° Southeast  Level Estimated
Sun 12:40:00 AM 12.5497 -78.3279 139° Southeast  Level Estimated
Sun 12:41:00 AM 12.4504 -78.2396 139° Southeast  Level Estimated
Sun 12:42:00 AM 12.3511 -78.1514 139° Southeast  Level Estimated
Sun 12:43:00 AM 12.2518 -78.0632 139° Southeast  Level Estimated
Sun 12:44:00 AM 12.1524 -77.9752 139° Southeast  Level Estimated
Sun 12:45:00 AM 12.0531 -77.8871 139° Southeast  Level Estimated
Sun 12:46:00 AM 11.9537 -77.7992 139° Southeast  Level Estimated
Sun 12:47:00 AM 11.8542 -77.7113 139° Southeast  Level Estimated
Sun 12:48:00 AM 11.7548 -77.6234 139° Southeast  Level Estimated
Sun 12:49:00 AM 11.6553 -77.5357 139° Southeast  Level Estimated
Sun 12:50:00 AM 11.5558 -77.4480 139° Southeast  Level Estimated
Sun 12:51:00 AM 11.4562 -77.3603 139° Southeast  Level Estimated
Sun 12:52:00 AM 11.3567 -77.2727 139° Southeast  Level Estimated
Sun 12:52:44 AM 11.2420 -76.8680 139° Southeast 490 564 35,000  Level FlightAware ADS-B
Sun 12:53:00 AM 11.2571 -77.1852 139° Southeast  Level Estimated
Sun 12:53:23 AM 11.2280 -76.7790 99° East 491 565 35,000  Level FlightAware ADS-B
Sun 12:54:05 AM 11.2170 -76.6910 97° East 492 566 35,000  Level FlightAware ADS-B
Sun 12:54:57 AM 11.2000 -76.5760 99° East 495 570 35,000  Level FlightAware ADS-B
Sun 12:55:33 AM 11.1910 -76.5050 97° East 495 570 35,000  Level FlightAware ADS-B
Sun 12:56:02 AM 11.1790 -76.4100 97° East 501 577 35,000  Level FlightAware ADS-B
Sun 12:56:42 AM 11.1830 -76.3150 88° East 500 575 35,000  Level FlightAware ADS-B
Sun 12:57:13 AM 11.1860 -76.2440 88° East 499 574 35,000  Level FlightAware ADS-B
Sun 12:57:48 AM 11.1900 -76.1620 87° East 500 575 35,000  Level FlightAware ADS-B
Sun 12:58:33 AM 11.1960 -76.0570 87° East 501 577 35,000  Level FlightAware ADS-B
Sun 12:59:08 AM 11.2000 -75.9760 87° East 502 578 35,000  Level FlightAware ADS-B
Sun 12:59:43 AM 11.2050 -75.8930 86° East 500 575 35,000  Level FlightAware ADS-B
Sun 01:00:17 AM 11.2110 -75.8090 86° East 499 574 35,000  Level FlightAware ADS-B
Sun 01:00:58 AM 11.2160 -75.7310 86° East 499 574 35,000  Level FlightAware ADS-B
Sun 01:01:34 AM 11.2210 -75.6590 86° East 499 574 35,000  Level FlightAware ADS-B
Sun 01:01:58 AM 11.1620 -75.5970 134° Southeast 765 880 35,000  Level FlightAware ADS-B
Sun 01:02:13 AM 11.1330 -75.5670 135° Southeast 493 567 35,000  Level FlightAware ADS-B
Sun 01:02:42 AM 11.0810 -75.5190 138° Southeast 490 564 35,000  Level FlightAware ADS-B
Sun 01:03:17 AM 11.0370 -75.4540 125° Southeast 492 566 35,000  Level FlightAware ADS-B
Sun 01:03:53 AM 10.9940 -75.3870 123° Southeast 492 566 35,000  Level FlightAware ADS-B
Sun 01:04:28 AM 10.9490 -75.3180 124° Southeast 492 566 35,000  Level FlightAware ADS-B
Sun 01:05:07 AM 10.8990 -75.2400 123° Southeast 492 566 35,000  Level FlightAware ADS-B
Sun 01:05:42 AM 10.8550 -75.1720 123° Southeast 493 567 35,000  Level FlightAware ADS-B
Sun 01:06:13 AM 10.8110 -75.1190 130° Southeast 493 567 35,000  Level FlightAware ADS-B
Sun 01:06:47 AM 10.7560 -75.0690 138° Southeast 492 566 35,000  Level FlightAware ADS-B
Sun 01:07:23 AM 10.6880 -75.0190 144° Southeast 491 565 35,000  Level FlightAware ADS-B
Sun 01:07:57 AM 10.6210 -74.9730 146° Southeast 490 564 35,000  Level FlightAware ADS-B
Sun 01:08:32 AM 10.5520 -74.9380 153° Southeast 488 562 35,000  Level FlightAware ADS-B
Sun 01:09:13 AM 10.4700 -74.9070 160° South 487 560 35,000  Level FlightAware ADS-B
Sun 01:09:42 AM 10.4080 -74.8860 162° South 487 560 35,000  Level FlightAware ADS-B
Sun 01:10:17 AM 10.3280 -74.8600 162° South 486 559 35,000  Level FlightAware ADS-B
Sun 01:10:53 AM 10.2510 -74.8350 162° South 486 559 35,000  Level FlightAware ADS-B
Sun 01:11:32 AM 10.1650 -74.8070 162° South 485 558 35,000  Level FlightAware ADS-B
Sun 01:12:02 AM 10.1000 -74.7870 163° South 484 557 35,000  Level FlightAware ADS-B
Sun 01:12:38 AM 10.0290 -74.7640 162° South 482 555 35,000  Level FlightAware ADS-B
Sun 01:13:17 AM 9.9420 -74.7360 162° South 482 555 35,000  Level FlightAware ADS-B
Sun 01:13:52 AM 9.8660 -74.7110 162° South 483 556 35,000  Level FlightAware ADS-B
Sun 01:14:22 AM 9.8050 -74.6920 163° South 483 556 35,000  Level FlightAware ADS-B
Sun 01:14:58 AM 9.7270 -74.6670 162° South 483 556 35,000  Level FlightAware ADS-B
Sun 01:15:37 AM 9.6430 -74.6400 162° South 484 557 35,000  Level FlightAware ADS-B
Sun 01:16:13 AM 9.5660 -74.6150 162° South 485 558 35,000  Level FlightAware ADS-B
Sun 01:16:42 AM 9.5030 -74.5950 163° South 484 557 35,000  Level FlightAware ADS-B
Sun 01:17:17 AM 9.4280 -74.5710 162° South 485 558 35,000  Level FlightAware ADS-B
Sun 01:17:52 AM 9.3540 -74.5470 162° South 486 559 35,000  Level FlightAware ADS-B
Sun 01:18:32 AM 9.2650 -74.5180 162° South 488 562 35,000  Level FlightAware ADS-B
Sun 01:19:03 AM 9.2040 -74.4990 163° South 488 562 35,000  Level FlightAware ADS-B
Sun 01:19:37 AM 9.1260 -74.4740 162° South 487 560 35,000  Level FlightAware ADS-B
Sun 01:20:17 AM 9.0420 -74.4470 162° South 488 562 35,000  Level FlightAware ADS-B
Sun 01:20:53 AM 8.9650 -74.4220 162° South 489 563 35,000  Level FlightAware ADS-B
Sun 01:21:22 AM 8.9010 -74.4020 163° South 488 562 35,000  Level FlightAware ADS-B
Sun 01:21:57 AM 8.8250 -74.3770 162° South 488 562 35,000  Level FlightAware ADS-B
Sun 01:22:38 AM 8.7390 -74.3470 161° South 485 558 35,000  Level FlightAware ADS-B
Sun 01:23:08 AM 8.6850 -74.3120 147° Southeast 487 560 35,000  Level FlightAware ADS-B
Sun 01:23:43 AM 8.6170 -74.2620 144° Southeast 486 559 35,000  Level FlightAware ADS-B
Sun 01:24:18 AM 8.5570 -74.2180 144° Southeast 486 559 35,000  Level FlightAware ADS-B
Sun 01:24:57 AM 8.4800 -74.1620 144° Southeast 489 563 35,000  Level FlightAware ADS-B
Sun 01:25:27 AM 8.4280 -74.1230 143° Southeast 490 564 35,000  Level FlightAware ADS-B
Sun 01:26:03 AM 8.3640 -74.0760 144° Southeast 491 565 35,000  Level FlightAware ADS-B
Sun 01:26:43 AM 8.2920 -74.0230 144° Southeast 489 563 35,000  Level FlightAware ADS-B
Sun 01:27:22 AM 8.2160 -73.9660 143° Southeast 486 559 35,000  Level FlightAware ADS-B
Sun 01:28:00 AM 8.1570 -73.9230 144° Southeast 487 560 35,000  Level FlightAware ADS-B
Sun 01:28:38 AM 8.0850 -73.8650 141° Southeast 485 558 35,000  Level FlightAware ADS-B
Sun 01:29:28 AM 8.0190 -73.7770 127° Southeast 486 559 35,000  Level FlightAware ADS-B
Sun 01:30:14 AM 7.9700 -73.6970 122° Southeast 482 555 35,000  Level FlightAware ADS-B
Sun 01:30:50 AM 7.9350 -73.6380 121° Southeast 482 555 35,000  Level FlightAware ADS-B
Sun 01:31:26 AM 7.8990 -73.5790 122° Southeast 482 555 35,000  Level FlightAware ADS-B
Sun 01:32:02 AM 7.8640 -73.5200 121° Southeast 482 555 35,000  Level FlightAware ADS-B
Sun 01:32:08 AM 7.8030 -73.4960 159° South 921 1060 35,000  Level FlightAware ADS-B
Sun 01:34:00 AM 7.6137 -73.3384 140° Southeast  Level Estimated
Sun 01:35:00 AM 7.5123 -73.2540 140° Southeast  Level Estimated
Sun 01:36:00 AM 7.4109 -73.1696 140° Southeast  Level Estimated
Sun 01:37:00 AM 7.3094 -73.0853 140° Southeast  Level Estimated
Sun 01:37:09 AM 7.1910 -73.1840 140° Southeast 489 563 35,000  Level FlightAware ADS-B
Sun 01:37:45 AM 7.1170 -73.1470 154° Southeast 488 562 35,000  Level FlightAware ADS-B
Sun 01:38:31 AM 7.0350 -73.1060 154° Southeast 488 562 35,000  Level FlightAware ADS-B
Sun 01:39:07 AM 6.9740 -73.0740 152° Southeast 488 562 35,000  Level FlightAware ADS-B
Sun 01:39:43 AM 6.9120 -73.0420 153° Southeast 488 562 35,000  Level FlightAware ADS-B
Sun 01:40:19 AM 6.8510 -73.0110 153° Southeast 488 562 35,000  Level FlightAware ADS-B
Sun 01:40:56 AM 6.7870 -72.9780 153° Southeast 488 562 35,000  Level FlightAware ADS-B
Sun 01:41:32 AM 6.7260 -72.9470 153° Southeast 488 562 35,000  Level FlightAware ADS-B
Sun 01:42:08 AM 6.6640 -72.9150 153° Southeast 488 562 35,000  Level FlightAware ADS-B
Sun 01:42:45 AM 6.6010 -72.8830 153° Southeast 488 562 35,000  Level FlightAware ADS-B
Sun 01:43:21 AM 6.5400 -72.8510 152° Southeast 488 562 35,000  Level FlightAware ADS-B
Sun 01:43:57 AM 6.4780 -72.8200 154° Southeast 488 562 35,000  Level FlightAware ADS-B
Sun 01:44:33 AM 6.4160 -72.7880 153° Southeast 488 562 35,000  Level FlightAware ADS-B
Sun 01:45:09 AM 6.3550 -72.7560 152° Southeast 488 562 35,000  Level FlightAware ADS-B
Sun 01:45:45 AM 6.2930 -72.7250 154° Southeast 488 562 35,000  Level FlightAware ADS-B
Sun 01:46:21 AM 6.2320 -72.6930 152° Southeast 488 562 35,000  Level FlightAware ADS-B
Sun 01:46:57 AM 6.1700 -72.6620 154° Southeast 488 562 35,000  Level FlightAware ADS-B
Sun 01:47:33 AM 6.1090 -72.6300 152° Southeast 488 562 35,000  Level FlightAware ADS-B
Sun 01:50:00 AM 5.8620 -72.4221 140° Southeast  Level Estimated
Sun 01:51:00 AM 5.7612 -72.3373 140° Southeast  Level Estimated
Sun 01:52:00 AM 5.6603 -72.2525 140° Southeast  Level Estimated
Sun 01:53:00 AM 5.5595 -72.1678 140° Southeast  Level Estimated
Sun 01:54:00 AM 5.4586 -72.0831 140° Southeast  Level Estimated
Sun 01:55:00 AM 5.3577 -71.9984 140° Southeast  Level Estimated
Sun 01:56:00 AM 5.2568 -71.9138 140° Southeast  Level Estimated
Sun 01:57:00 AM 5.1560 -71.8291 140° Southeast  Level Estimated
Sun 01:58:00 AM 5.0550 -71.7445 140° Southeast  Level Estimated
Sun 01:59:00 AM 4.9541 -71.6600 140° Southeast  Level Estimated
Sun 02:00:00 AM 4.8532 -71.5754 140° Southeast  Level Estimated
Sun 02:01:00 AM 4.7522 -71.4909 140° Southeast  Level Estimated
Sun 02:02:00 AM 4.6513 -71.4064 140° Southeast  Level Estimated
Sun 02:03:00 AM 4.5503 -71.3219 140° Southeast  Level Estimated
Sun 02:04:00 AM 4.4504 -71.2383 140° Southeast  Level Estimated
Sun 02:05:00 AM 4.3505 -71.1548 140° Southeast  Level Estimated
Sun 02:06:00 AM 4.2505 -71.0713 140° Southeast  Level Estimated
Sun 02:07:00 AM 4.1506 -70.9878 140° Southeast  Level Estimated
Sun 02:08:00 AM 4.0506 -70.9043 140° Southeast  Level Estimated
Sun 02:09:00 AM 3.9506 -70.8208 140° Southeast  Level Estimated
Sun 02:10:00 AM 3.8507 -70.7374 140° Southeast  Level Estimated
Sun 02:11:00 AM 3.7507 -70.6540 140° Southeast  Level Estimated
Sun 02:12:00 AM 3.6507 -70.5706 140° Southeast  Level Estimated
Sun 02:13:00 AM 3.5507 -70.4872 140° Southeast  Level Estimated
Sun 02:14:00 AM 3.4507 -70.4038 140° Southeast  Level Estimated
Sun 02:15:00 AM 3.3507 -70.3205 140° Southeast  Level Estimated
Sun 02:16:00 AM 3.2507 -70.2372 140° Southeast  Level Estimated
Sun 02:17:00 AM 3.1506 -70.1539 140° Southeast  Level Estimated
Sun 02:18:00 AM 3.0506 -70.0706 140° Southeast  Level Estimated
Sun 02:19:00 AM 2.9506 -69.9873 140° Southeast  Level Estimated
Sun 02:20:00 AM 2.8505 -69.9040 140° Southeast  Level Estimated
Sun 02:21:00 AM 2.7505 -69.8208 140° Southeast  Level Estimated
Sun 02:22:00 AM 2.6504 -69.7375 140° Southeast  Level Estimated
Sun 02:23:00 AM 2.5503 -69.6543 140° Southeast  Level Estimated
Sun 02:24:00 AM 2.4503 -69.5711 140° Southeast  Level Estimated
Sun 02:25:00 AM 2.3502 -69.4879 140° Southeast  Level Estimated
Sun 02:26:00 AM 2.2501 -69.4047 140° Southeast  Level Estimated
Sun 02:27:00 AM 2.1500 -69.3215 140° Southeast  Level Estimated
Sun 02:28:00 AM 2.0501 -69.2385 140° Southeast  Level Estimated
Sun 02:29:00 AM 1.9502 -69.1555 140° Southeast  Level Estimated
Sun 02:30:00 AM 1.8503 -69.0725 140° Southeast  Level Estimated
Sun 02:31:00 AM 1.7504 -68.9895 140° Southeast  Level Estimated
Sun 02:32:00 AM 1.6504 -68.9065 140° Southeast  Level Estimated
Sun 02:33:00 AM 1.5505 -68.8236 140° Southeast  Level Estimated
Sun 02:34:00 AM 1.4506 -68.7406 140° Southeast  Level Estimated
Sun 02:35:00 AM 1.3506 -68.6576 140° Southeast  Level Estimated
Sun 02:36:00 AM 1.2507 -68.5747 140° Southeast  Level Estimated
Sun 02:37:00 AM 1.1507 -68.4918 140° Southeast  Level Estimated
Sun 02:38:00 AM 1.0508 -68.4088 140° Southeast  Level Estimated
Sun 02:39:00 AM 0.9508 -68.3259 140° Southeast  Level Estimated
Sun 02:40:00 AM 0.8509 -68.2430 140° Southeast  Level Estimated
Sun 02:41:00 AM 0.7509 -68.1600 140° Southeast  Level Estimated
Sun 02:42:00 AM 0.6510 -68.0771 140° Southeast  Level Estimated
Sun 02:43:00 AM 0.5510 -67.9942 140° Southeast  Level Estimated
Sun 02:44:00 AM 0.4511 -67.9113 140° Southeast  Level Estimated
Sun 02:45:00 AM 0.3511 -67.8284 140° Southeast  Level Estimated
Sun 02:46:00 AM 0.2512 -67.7455 140° Southeast  Level Estimated
Sun 02:47:00 AM 0.1512 -67.6626 140° Southeast  Level Estimated
Sun 02:48:00 AM 0.0512 -67.5796 140° Southeast  Level Estimated
Sun 02:49:00 AM -0.0487 -67.4967 140° Southeast  Level Estimated
Sun 02:50:00 AM -0.1487 -67.4138 140° Southeast  Level Estimated
Sun 02:51:00 AM -0.2486 -67.3309 140° Southeast  Level Estimated
Sun 02:52:00 AM -0.3486 -67.2480 140° Southeast  Level Estimated
Sun 02:53:00 AM -0.4486 -67.1651 140° Southeast  Level Estimated
Sun 02:54:00 AM -0.5485 -67.0822 140° Southeast  Level Estimated
Sun 02:55:00 AM -0.6485 -66.9993 140° Southeast  Level Estimated
Sun 02:56:00 AM -0.7484 -66.9163 140° Southeast  Level Estimated
Sun 02:57:00 AM -0.8484 -66.8334 140° Southeast  Level Estimated
Sun 02:58:00 AM -0.9483 -66.7505 140° Southeast  Level Estimated
Sun 02:59:00 AM -1.0483 -66.6676 140° Southeast  Level Estimated
Sun 03:00:00 AM -1.1482 -66.5846 140° Southeast  Level Estimated
Sun 03:01:00 AM -1.2482 -66.5017 140° Southeast  Level Estimated
Sun 03:02:00 AM -1.3481 -66.4187 140° Southeast  Level Estimated
Sun 03:03:00 AM -1.4481 -66.3358 140° Southeast  Level Estimated
Sun 03:04:00 AM -1.5480 -66.2528 140° Southeast  Level Estimated
Sun 03:05:00 AM -1.6479 -66.1698 140° Southeast  Level Estimated
Sun 03:06:00 AM -1.7479 -66.0869 140° Southeast  Level Estimated
Sun 03:07:00 AM -1.8478 -66.0039 140° Southeast  Level Estimated
Sun 03:08:00 AM -1.9477 -65.9209 140° Southeast  Level Estimated
Sun 03:09:00 AM -2.0476 -65.8379 140° Southeast  Level Estimated
Sun 03:10:00 AM -2.1475 -65.7548 140° Southeast  Level Estimated
Sun 03:11:00 AM -2.2475 -65.6718 140° Southeast  Level Estimated
Sun 03:12:00 AM -2.3473 -65.5888 140° Southeast  Level Estimated
Sun 03:13:00 AM -2.4472 -65.5057 140° Southeast  Level Estimated
Sun 03:14:00 AM -2.5471 -65.4227 140° Southeast  Level Estimated
Sun 03:15:00 AM -2.6470 -65.3396 140° Southeast  Level Estimated
Sun 03:16:00 AM -2.7469 -65.2565 140° Southeast  Level Estimated
Sun 03:17:00 AM -2.8468 -65.1734 140° Southeast  Level Estimated
Sun 03:18:00 AM -2.9467 -65.0902 140° Southeast  Level Estimated
Sun 03:19:00 AM -3.0465 -65.0071 140° Southeast  Level Estimated
Sun 03:20:00 AM -3.1464 -64.9240 140° Southeast  Level Estimated
Sun 03:21:00 AM -3.2462 -64.8408 140° Southeast  Level Estimated
Sun 03:22:00 AM -3.3461 -64.7576 140° Southeast  Level Estimated
Sun 03:23:00 AM -3.4459 -64.6744 140° Southeast  Level Estimated
Sun 03:24:00 AM -3.5458 -64.5912 140° Southeast  Level Estimated
Sun 03:25:00 AM -3.6456 -64.5080 140° Southeast  Level Estimated
Sun 03:26:00 AM -3.7454 -64.4247 140° Southeast  Level Estimated
Sun 03:27:00 AM -3.8452 -64.3414 140° Southeast  Level Estimated
Sun 03:28:00 AM -3.9450 -64.2581 140° Southeast  Level Estimated
Sun 03:29:00 AM -4.0448 -64.1748 140° Southeast  Level Estimated
Sun 03:30:00 AM -4.1446 -64.0915 140° Southeast  Level Estimated
Sun 03:31:00 AM -4.2443 -64.0082 140° Southeast  Level Estimated
Sun 03:32:00 AM -4.3441 -63.9248 140° Southeast  Level Estimated
Sun 03:33:00 AM -4.4439 -63.8414 140° Southeast  Level Estimated
Sun 03:34:00 AM -4.5436 -63.7580 140° Southeast  Level Estimated
Sun 03:35:00 AM -4.6434 -63.6745 140° Southeast  Level Estimated
Sun 03:36:00 AM -4.7431 -63.5910 140° Southeast  Level Estimated
Sun 03:37:00 AM -4.8428 -63.5076 140° Southeast  Level Estimated
Sun 03:38:00 AM -4.9425 -63.4240 140° Southeast  Level Estimated
Sun 03:39:00 AM -5.0422 -63.3405 140° Southeast  Level Estimated
Sun 03:40:00 AM -5.1419 -63.2569 140° Southeast  Level Estimated
Sun 03:41:00 AM -5.2416 -63.1733 140° Southeast  Level Estimated
Sun 03:42:00 AM -5.3413 -63.0897 140° Southeast  Level Estimated
Sun 03:43:00 AM -5.4409 -63.0061 140° Southeast  Level Estimated
Sun 03:44:00 AM -5.5406 -62.9224 140° Southeast  Level Estimated
Sun 03:45:00 AM -5.6402 -62.8387 140° Southeast  Level Estimated
Sun 03:46:00 AM -5.7398 -62.7550 140° Southeast  Level Estimated
Sun 03:47:00 AM -5.8394 -62.6712 140° Southeast  Level Estimated
Sun 03:48:00 AM -5.9390 -62.5874 140° Southeast  Level Estimated
Sun 03:49:00 AM -6.0386 -62.5036 140° Southeast  Level Estimated
Sun 03:50:00 AM -6.1382 -62.4198 140° Southeast  Level Estimated
Sun 03:51:00 AM -6.2377 -62.3359 140° Southeast  Level Estimated
Sun 03:52:00 AM -6.3372 -62.2520 140° Southeast  Level Estimated
Sun 03:53:00 AM -6.4368 -62.1680 140° Southeast  Level Estimated
Sun 03:54:00 AM -6.5363 -62.0840 140° Southeast  Level Estimated
Sun 03:55:00 AM -6.6358 -62.0000 140° Southeast  Level Estimated
Sun 03:56:00 AM -6.7353 -61.9160 140° Southeast  Level Estimated
Sun 03:57:00 AM -6.8347 -61.8319 140° Southeast  Level Estimated
Sun 03:58:00 AM -6.9342 -61.7478 140° Southeast  Level Estimated
Sun 03:59:00 AM -7.0336 -61.6636 140° Southeast  Level Estimated
Sun 04:00:00 AM -7.1331 -61.5794 140° Southeast  Level Estimated
Sun 04:01:00 AM -7.2325 -61.4952 140° Southeast  Level Estimated
Sun 04:02:00 AM -7.3319 -61.4109 140° Southeast  Level Estimated
Sun 04:03:00 AM -7.4313 -61.3266 140° Southeast  Level Estimated
Sun 04:04:00 AM -7.5306 -61.2423 140° Southeast  Level Estimated
Sun 04:05:00 AM -7.6300 -61.1579 140° Southeast  Level Estimated
Sun 04:06:00 AM -7.7293 -61.0735 140° Southeast  Level Estimated
Sun 04:07:00 AM -7.8286 -60.9891 140° Southeast  Level Estimated
Sun 04:08:00 AM -7.9279 -60.9046 140° Southeast  Level Estimated
Sun 04:09:00 AM -8.0272 -60.8200 140° Southeast  Level Estimated
Sun 04:10:00 AM -8.1265 -60.7354 140° Southeast  Level Estimated
Sun 04:11:00 AM -8.2257 -60.6508 140° Southeast  Level Estimated
Sun 04:12:00 AM -8.3249 -60.5662 140° Southeast  Level Estimated
Sun 04:13:00 AM -8.4242 -60.4815 140° Southeast  Level Estimated
Sun 04:14:00 AM -8.5233 -60.3967 140° Southeast  Level Estimated
Sun 04:15:00 AM -8.6225 -60.3119 140° Southeast  Level Estimated
Sun 04:16:00 AM -8.7217 -60.2271 140° Southeast  Level Estimated
Sun 04:17:00 AM -8.8208 -60.1422 140° Southeast  Level Estimated
Sun 04:18:00 AM -8.9199 -60.0573 140° Southeast  Level Estimated
Sun 04:19:00 AM -9.0190 -59.9723 140° Southeast  Level Estimated
Sun 04:20:00 AM -9.1181 -59.8873 140° Southeast  Level Estimated
Sun 04:21:00 AM -9.2172 -59.8022 140° Southeast  Level Estimated
Sun 04:22:00 AM -9.3162 -59.7171 140° Southeast  Level Estimated
Sun 04:23:00 AM -9.4152 -59.6319 140° Southeast  Level Estimated
Sun 04:24:00 AM -9.5142 -59.5467 140° Southeast  Level Estimated
Sun 04:25:00 AM -9.6132 -59.4615 140° Southeast  Level Estimated
Sun 04:26:00 AM -9.7122 -59.3762 140° Southeast  Level Estimated
Sun 04:27:00 AM -9.8111 -59.2908 140° Southeast  Level Estimated
Sun 04:28:00 AM -9.9100 -59.2054 140° Southeast  Level Estimated
Sun 04:29:00 AM -10.0089 -59.1199 140° Southeast  Level Estimated
Sun 04:30:00 AM -10.1078 -59.0344 140° Southeast  Level Estimated
Sun 04:31:00 AM -10.2066 -58.9488 140° Southeast  Level Estimated
Sun 04:32:00 AM -10.3055 -58.8632 140° Southeast  Level Estimated
Sun 04:33:00 AM -10.4043 -58.7775 140° Southeast  Level Estimated
Sun 04:34:00 AM -10.5031 -58.6918 140° Southeast  Level Estimated
Sun 04:35:00 AM -10.6018 -58.6060 140° Southeast  Level Estimated
Sun 04:36:00 AM -10.7006 -58.5202 139° Southeast  Level Estimated
Sun 04:37:00 AM -10.7993 -58.4343 139° Southeast  Level Estimated
Sun 04:38:00 AM -10.8980 -58.3483 139° Southeast  Level Estimated
Sun 04:39:00 AM -10.9966 -58.2623 139° Southeast  Level Estimated
Sun 04:40:00 AM -11.0953 -58.1763 139° Southeast  Level Estimated
Sun 04:41:00 AM -11.1939 -58.0901 139° Southeast  Level Estimated
Sun 04:42:00 AM -11.2925 -58.0039 139° Southeast  Level Estimated
Sun 04:43:00 AM -11.3910 -57.9177 139° Southeast  Level Estimated
Sun 04:44:00 AM -11.4896 -57.8314 139° Southeast  Level Estimated
Sun 04:45:00 AM -11.5881 -57.7450 139° Southeast  Level Estimated
Sun 04:46:00 AM -11.6866 -57.6586 139° Southeast  Level Estimated
Sun 04:47:00 AM -11.7851 -57.5721 139° Southeast  Level Estimated
Sun 04:48:00 AM -11.8835 -57.4856 139° Southeast  Level Estimated
Sun 04:49:00 AM -11.9819 -57.3990 139° Southeast  Level Estimated
Sun 04:50:00 AM -12.0803 -57.3123 139° Southeast  Level Estimated
Sun 04:51:00 AM -12.1786 -57.2256 139° Southeast  Level Estimated
Sun 04:52:00 AM -12.2768 -57.1389 139° Southeast  Level Estimated
Sun 04:53:00 AM -12.3749 -57.0522 139° Southeast  Level Estimated
Sun 04:54:00 AM -12.4731 -56.9654 139° Southeast  Level Estimated
Sun 04:55:00 AM -12.5711 -56.8786 139° Southeast  Level Estimated
Sun 04:56:00 AM -12.6692 -56.7917 139° Southeast  Level Estimated
Sun 04:57:00 AM -12.7672 -56.7047 139° Southeast  Level Estimated
Sun 04:58:00 AM -12.8652 -56.6176 139° Southeast  Level Estimated
Sun 04:59:00 AM -12.9632 -56.5305 139° Southeast  Level Estimated
Sun 05:00:00 AM -13.0611 -56.4433 139° Southeast  Level Estimated
Sun 05:01:00 AM -13.1590 -56.3561 139° Southeast  Level Estimated
Sun 05:02:00 AM -13.2569 -56.2688 139° Southeast  Level Estimated
Sun 05:03:00 AM -13.3547 -56.1814 139° Southeast  Level Estimated
Sun 05:04:00 AM -13.4525 -56.0939 139° Southeast  Level Estimated
Sun 05:05:00 AM -13.5503 -56.0064 139° Southeast  Level Estimated
Sun 05:06:00 AM -13.6481 -55.9188 139° Southeast  Level Estimated
Sun 05:07:00 AM -13.7458 -55.8311 139° Southeast  Level Estimated
Sun 05:08:00 AM -13.8435 -55.7433 139° Southeast  Level Estimated
Sun 05:09:00 AM -13.9412 -55.6555 139° Southeast  Level Estimated
Sun 05:10:00 AM -14.0388 -55.5676 139° Southeast  Level Estimated
Sun 05:11:00 AM -14.1364 -55.4796 139° Southeast  Level Estimated
Sun 05:12:00 AM -14.2340 -55.3916 139° Southeast  Level Estimated
Sun 05:13:00 AM -14.3315 -55.3034 139° Southeast  Level Estimated
Sun 05:14:00 AM -14.4290 -55.2152 139° Southeast  Level Estimated
Sun 05:15:00 AM -14.5265 -55.1270 139° Southeast  Level Estimated
Sun 05:16:00 AM -14.6239 -55.0386 139° Southeast  Level Estimated
Sun 05:17:00 AM -14.7213 -54.9502 139° Southeast  Level Estimated
Sun 05:18:00 AM -14.8187 -54.8616 139° Southeast  Level Estimated
Sun 05:19:00 AM -14.9160 -54.7730 139° Southeast  Level Estimated
Sun 05:20:00 AM -15.0133 -54.6844 139° Southeast  Level Estimated
Sun 05:21:00 AM -15.1106 -54.5956 139° Southeast  Level Estimated
Sun 05:22:00 AM -15.2078 -54.5068 139° Southeast  Level Estimated
Sun 05:23:00 AM -15.3050 -54.4178 139° Southeast  Level Estimated
Sun 05:24:00 AM -15.4022 -54.3288 139° Southeast  Level Estimated
Sun 05:25:00 AM -15.4993 -54.2397 139° Southeast  Level Estimated
Sun 05:26:00 AM -15.5964 -54.1506 139° Southeast  Level Estimated
Sun 05:27:00 AM -15.6935 -54.0613 138° Southeast  Level Estimated
Sun 05:28:00 AM -15.7905 -53.9720 138° Southeast  Level Estimated
Sun 05:29:00 AM -15.8875 -53.8826 138° Southeast  Level Estimated
Sun 05:30:00 AM -15.9844 -53.7930 138° Southeast  Level Estimated
Sun 05:31:00 AM -16.0813 -53.7034 138° Southeast  Level Estimated
Sun 05:32:00 AM -16.1782 -53.6138 138° Southeast  Level Estimated
Sun 05:33:00 AM -16.2750 -53.5240 138° Southeast  Level Estimated
Sun 05:34:00 AM -16.3718 -53.4341 138° Southeast  Level Estimated
Sun 05:35:00 AM -16.4686 -53.3442 138° Southeast  Level Estimated
Sun 05:36:00 AM -16.5653 -53.2541 138° Southeast  Level Estimated
Sun 05:37:00 AM -16.6620 -53.1640 138° Southeast  Level Estimated
Sun 05:38:00 AM -16.7586 -53.0738 138° Southeast  Level Estimated
Sun 05:39:00 AM -16.8552 -52.9835 138° Southeast  Level Estimated
Sun 05:40:00 AM -16.9518 -52.8931 138° Southeast  Level Estimated
Sun 05:41:00 AM -17.0483 -52.8026 138° Southeast  Level Estimated
Sun 05:42:00 AM -17.1448 -52.7120 138° Southeast  Level Estimated
Sun 05:43:00 AM -17.2412 -52.6213 138° Southeast  Level Estimated
Sun 05:44:00 AM -17.3377 -52.5305 138° Southeast  Level Estimated
Sun 05:45:00 AM -17.4340 -52.4396 138° Southeast  Level Estimated
Sun 05:46:00 AM -17.5303 -52.3487 138° Southeast  Level Estimated
Sun 05:47:00 AM -17.6266 -52.2576 138° Southeast  Level Estimated
Sun 05:48:00 AM -17.7229 -52.1664 138° Southeast  Level Estimated
Sun 05:49:00 AM -17.8190 -52.0751 138° Southeast  Level Estimated
Sun 05:50:00 AM -17.9152 -51.9838 138° Southeast  Level Estimated
Sun 05:50:33 AM -18.9320 -50.7450 138° Southeast 492 566 35,000  Level FlightAware ADS-B
Sun 05:51:00 AM -18.0113 -51.8923 138° Southeast  Level Estimated
Sun 05:51:10 AM -18.9810 -50.6890 133° Southeast 492 566 35,000  Level FlightAware ADS-B
Sun 05:51:46 AM -19.0290 -50.6360 134° Southeast 492 566 35,000  Level FlightAware ADS-B
Sun 05:52:21 AM -19.1050 -50.5560 135° Southeast 492 566 35,000  Level FlightAware ADS-B
Sun 05:52:57 AM -19.1610 -50.4950 134° Southeast 492 566 35,000  Level FlightAware ADS-B
Sun 05:53:29 AM -19.2120 -50.4390 134° Southeast 492 566 35,000  Level FlightAware ADS-B
Sun 05:54:05 AM -19.2700 -50.3760 134° Southeast 493 567 35,000  Level FlightAware ADS-B
Sun 05:54:41 AM -19.3270 -50.3130 134° Southeast 493 567 35,000  Level FlightAware ADS-B
Sun 05:55:15 AM -19.3810 -50.2540 134° Southeast 492 566 35,000  Level FlightAware ADS-B
Sun 05:55:50 AM -19.4340 -50.1950 134° Southeast 493 567 35,000  Level FlightAware ADS-B
Sun 05:56:23 AM -19.4890 -50.1350 134° Southeast 493 567 35,000  Level FlightAware ADS-B
Sun 05:56:59 AM -19.5450 -50.0730 134° Southeast 493 567 35,000  Level FlightAware ADS-B
Sun 05:57:35 AM -19.6000 -50.0120 134° Southeast 493 567 35,000  Level FlightAware ADS-B
Sun 05:58:13 AM -19.6630 -49.9430 134° Southeast 493 567 35,000  Level FlightAware ADS-B
Sun 05:58:45 AM -19.7140 -49.8880 135° Southeast 492 566 35,000  Level FlightAware ADS-B
Sun 05:59:23 AM -19.7750 -49.8220 134° Southeast 494 568 35,000  Level FlightAware ADS-B
Sun 05:59:55 AM -19.8230 -49.7680 133° Southeast 494 568 35,000  Level FlightAware ADS-B
Sun 06:00:27 AM -19.8760 -49.7110 135° Southeast 494 568 35,000  Level FlightAware ADS-B
Sun 06:01:05 AM -19.9360 -49.6450 134° Southeast 494 568 35,000  Level FlightAware ADS-B
Sun 06:01:37 AM -19.9880 -49.5880 134° Southeast 494 568 35,000  Level FlightAware ADS-B
Sun 06:02:17 AM -20.0510 -49.5190 134° Southeast 495 570 35,000  Level FlightAware ADS-B
Sun 06:02:49 AM -20.1020 -49.4620 134° Southeast 494 568 35,000  Level FlightAware ADS-B
Sun 06:03:25 AM -20.1590 -49.4000 134° Southeast 495 570 35,000  Level FlightAware ADS-B
Sun 06:04:01 AM -20.2170 -49.3360 134° Southeast 495 570 35,000  Level FlightAware ADS-B
Sun 06:04:38 AM -20.2750 -49.2720 134° Southeast 495 570 35,000  Level FlightAware ADS-B
Sun 06:05:09 AM -20.3250 -49.2170 134° Southeast 494 568 35,000  Level FlightAware ADS-B
Sun 06:05:45 AM -20.3810 -49.1550 134° Southeast 494 568 35,000  Level FlightAware ADS-B
Sun 06:06:19 AM -20.4350 -49.0950 134° Southeast 495 570 35,000  Level FlightAware ADS-B
Sun 06:06:57 AM -20.4960 -49.0270 134° Southeast 494 568 35,000  Level FlightAware ADS-B
Sun 06:07:31 AM -20.5490 -48.9680 134° Southeast 495 570 35,000  Level FlightAware ADS-B
Sun 06:08:03 AM -20.6010 -48.9120 135° Southeast 495 570 35,000  Level FlightAware ADS-B
Sun 06:08:39 AM -20.6580 -48.8480 134° Southeast 496 571 35,000  Level FlightAware ADS-B
Sun 06:09:13 AM -20.7110 -48.7880 133° Southeast 496 571 35,000  Level FlightAware ADS-B
Sun 06:09:49 AM -20.7680 -48.7240 134° Southeast 495 570 35,000  Level FlightAware ADS-B
Sun 06:10:27 AM -20.8290 -48.6570 134° Southeast 495 570 35,000  Level FlightAware ADS-B
Sun 06:11:03 AM -20.8860 -48.5930 134° Southeast 495 570 35,000  Level FlightAware ADS-B
Sun 06:11:35 AM -20.9370 -48.5350 133° Southeast 495 570 35,000  Level FlightAware ADS-B
Sun 06:12:09 AM -20.9900 -48.4760 134° Southeast 495 570 35,000  Level FlightAware ADS-B
Sun 06:12:41 AM -21.0400 -48.4190 133° Southeast 496 571 35,000  Level FlightAware ADS-B
Sun 06:13:19 AM -21.1020 -48.3500 134° Southeast 494 568 35,000  Level FlightAware ADS-B
Sun 06:13:55 AM -21.1650 -48.2940 140° Southeast 493 567 35,000  Level FlightAware ADS-B
Sun 06:14:31 AM -21.2280 -48.2410 142° Southeast 493 567 35,000  Level FlightAware ADS-B
Sun 06:15:07 AM -21.2940 -48.1860 142° Southeast 492 566 35,000  Level FlightAware ADS-B
Sun 06:15:39 AM -21.3510 -48.1390 142° Southeast 492 566 35,000  Level FlightAware ADS-B
Sun 06:16:16 AM -21.4170 -48.0830 142° Southeast 492 566 35,000  Level FlightAware ADS-B
Sun 06:16:49 AM -21.4780 -48.0320 142° Southeast 492 566 35,000  Level FlightAware ADS-B
Sun 06:17:25 AM -21.5420 -47.9780 142° Southeast 491 565 35,000  Level FlightAware ADS-B
Sun 06:18:01 AM -21.6070 -47.9230 142° Southeast 491 565 35,000  Level FlightAware ADS-B
Sun 06:18:37 AM -21.6720 -47.8690 142° Southeast 491 565 35,000  Level FlightAware ADS-B
Sun 06:19:09 AM -21.7280 -47.8210 141° Southeast 492 566 35,000  Level FlightAware ADS-B
Sun 06:19:45 AM -21.7920 -47.7670 142° Southeast 491 565 35,000 -500 Level FlightAware ADS-B
Sun 06:20:21 AM -21.8560 -47.7130 142° Southeast 489 563 34,400 -1,250 Descending FlightAware ADS-B
Sun 06:20:57 AM -21.9200 -47.6590 142° Southeast 492 566 33,500 -1,412 Descending FlightAware ADS-B
Sun 06:21:29 AM -21.9770 -47.6100 141° Southeast 496 571 32,800 -1,941 Descending FlightAware ADS-B
Sun 06:22:05 AM -22.0440 -47.5530 142° Southeast 493 567 31,300 -2,333 Descending FlightAware ADS-B
Sun 06:22:41 AM -22.1060 -47.5010 142° Southeast 487 560 30,000 -2,250 Descending FlightAware ADS-B
Sun 06:23:17 AM -22.1710 -47.4450 141° Southeast 481 554 28,600 -2,206 Descending FlightAware ADS-B
Sun 06:23:49 AM -22.2260 -47.3980 142° Southeast 474 545 27,500 -2,087 Descending FlightAware ADS-B
Sun 06:24:26 AM -22.2880 -47.3450 142° Southeast 467 537 26,200 -2,083 Descending FlightAware ADS-B
Sun 06:25:01 AM -22.3490 -47.2930 142° Southeast 459 528 25,000 -2,000 Descending FlightAware ADS-B
Sun 06:25:35 AM -22.4040 -47.2460 142° Southeast 453 521 23,900 -2,000 Descending FlightAware ADS-B
Sun 06:26:10 AM -22.4610 -47.1970 142° Southeast 448 516 22,700 -2,083 Descending FlightAware ADS-B
Sun 06:26:47 AM -22.5210 -47.1460 142° Southeast 441 507 21,400 -2,055 Descending FlightAware ADS-B
Sun 06:27:23 AM -22.5800 -47.1000 144° Southeast 433 498 20,200 -1,941 Descending FlightAware ADS-B
Sun 06:27:55 AM -22.6390 -47.0720 156° South 428 493 19,200 -1,938 Descending FlightAware ADS-B
Sun 06:28:28 AM -22.6960 -47.0480 159° South 415 478 18,100 -2,000 Descending FlightAware ADS-B
Sun 06:29:07 AM -22.7690 -47.0170 159° South 416 479 16,800 -2,000 Descending FlightAware ADS-B
Sun 06:29:43 AM -22.8330 -46.9900 159° South 412 474 15,600 -1,846 Descending FlightAware ADS-B
Sun 06:30:12 AM -22.8850 -46.9690 160° South 397 457 14,800 -1,938 Descending FlightAware ADS-B
Sun 06:30:48 AM -22.9470 -46.9420 158° South 382 440 13,500 -2,057 Descending FlightAware ADS-B
Sun 06:31:22 AM -23.0000 -46.9200 159° South 348 400 12,400 -1,280 Descending FlightAware ADS-B
Sun 06:32:03 AM -23.0590 -46.8950 159° South 315 362 11,900 -1,371 Descending FlightAware ADS-B
Sun 06:32:32 AM -23.0980 -46.8790 159° South 311 358 10,800 -1,520 Descending FlightAware ADS-B
Sun 06:33:18 AM -23.1560 -46.8540 158° South 278 320 10,000 -738 Descending FlightAware ADS-B
Sun 06:33:37 AM -23.1790 -46.8450 160° South 261 300 10,000 -353 Level FlightAware ADS-B
Sun 06:33:52 AM -23.1950 -46.8380 158° South 245 282 9,800 -667 Descending FlightAware ADS-B
Sun 06:34:13 AM -23.2170 -46.8290 159° South 240 276 9,600 -450 Descending FlightAware ADS-B
Sun 06:34:32 AM -23.2360 -46.8200 156° South 228 262 9,500 -615 Descending FlightAware ADS-B
Sun 06:34:52 AM -23.2560 -46.8120 160° South 210 242 9,200 -900 Descending FlightAware ADS-B
Sun 06:35:12 AM -23.2740 -46.8040 158° South 212 244 8,900 -973 Descending FlightAware ADS-B
Sun 06:35:29 AM -23.2880 -46.7980 159° South 208 239 8,600 -1,200 Descending FlightAware ADS-B
Sun 06:35:52 AM -23.3100 -46.7890 159° South 207 238 8,100 -1,256 Descending FlightAware ADS-B
Sun 06:36:12 AM -23.3280 -46.7820 160° South 206 237 7,700 -1,350 Descending FlightAware ADS-B
Sun 06:36:32 AM -23.3470 -46.7740 159° South 206 237 7,200 -1,317 Descending FlightAware ADS-B
Sun 06:36:53 AM -23.3650 -46.7660 158° South 210 242 6,800 -1,116 Descending FlightAware ADS-B
Sun 06:37:15 AM -23.3820 -46.7530 145° Southeast 202 232 6,400 -1,000 Descending FlightAware ADS-B
Sun 06:37:35 AM -23.3970 -46.7400 142° Southeast 189 217 6,100 -900 Descending FlightAware ADS-B
Sun 06:37:55 AM -23.4100 -46.7280 140° Southeast 185 213 5,800 -955 Descending FlightAware ADS-B
Sun 06:38:19 AM -23.4250 -46.7130 137° Southeast 185 213 5,400 -789 Descending FlightAware ADS-B
Sun 06:38:33 AM -23.4340 -46.7050 141° Southeast 185 213 5,300 -529 Descending FlightAware ADS-B
Sun 06:38:53 AM -23.4470 -46.6920 137° Southeast 182 209 5,100 -643 Descending FlightAware ADS-B
Sun 06:39:01 AM -23.4500 -46.6860 119° Southeast 179 206 5,000 -1,000 Descending FlightAware ADS-B
Sun 06:39:17 AM -23.4560 -46.6730 117° Southeast 180 207 4,700 -833 Descending FlightAware ADS-B
Sun 06:39:37 AM -23.4630 -46.6570 116° Southeast 183 211 4,500 -300 Descending FlightAware ADS-B
Sun 06:39:57 AM -23.4710 -46.6390 116° Southeast 183 211 4,500  Level FlightAware ADS-B
Sun 06:40:13 AM -23.4740 -46.6260 104° East 180 207 4,500 -150 Level FlightAware ADS-B
Sun 06:40:37 AM -23.4710 -46.6050 81° East 175 201 4,400 -500 Descending FlightAware ADS-B
Sun 06:41:01 AM -23.4650 -46.5850 72° East 162 186 4,100 -818 Descending FlightAware ADS-B
Sun 06:41:21 AM -23.4610 -46.5700 74° East 151 174 3,800 -900 Descending FlightAware ADS-B
Sun 06:41:41 AM -23.4570 -46.5550 74° East 147 169 3,500 -732 Descending FlightAware ADS-B
Sun 06:42:02 AM -23.4540 -46.5420 76° East 147 169 3,300 -682 Descending FlightAware ADS-B
Sun 06:42:25 AM -23.4490 -46.5250 72° East 151 174 3,000 -764 Descending FlightAware ADS-B
Sun 06:42:57 AM -23.4430 -46.5010 75° East 144 166 2,600 -632 Descending FlightAware ADS-B
Sun 06:43:22 AM -23.4400 -46.4920 70° East 144 166 2,400 -240 Descending FlightAware ADS-B
Sun 06:43:47 AM -23.4360 -46.4780 73° East 144 166 2,400  Level FlightAware ADS-B

Login

Don't have an account? Register now (free) for customized features, flight alerts, and more!